Time;durP1;ratioP1;P1;durP2;ratioP2;P2;SDS_P1;SDS_P2;PMS_P1;PMS_P2;Temp;Humidity;BMP_temperature;BMP_pressure;BME280_temperature;BME280_humidity;BME280_pressure;Samples;Min_cycle;Max_cycle;Signal;HPM_P1;HPM_P2
2023/12/20 00:01:32;;;;;;;36.40;21.00;;;;;;;;;;2613075;54;20422;-74
2023/12/20 00:07:02;;;;;;;40.40;20.47;;;;;;;;;;2612425;54;20365;-73
2023/12/20 00:12:32;;;;;;;42.67;20.43;;;;;;;;;;2614028;54;21198;-74
2023/12/20 00:18:01;;;;;;;37.57;18.57;;;;;;;;;;2613791;54;20363;-75
2023/12/20 00:23:31;;;;;;;32.13;17.57;;;;;;;;;;2612405;54;20420;-75
2023/12/20 00:29:00;;;;;;;27.10;14.47;;;;;;;;;;2613024;54;20383;-74
2023/12/20 00:34:30;;;;;;;20.57;10.27;;;;;;;;;;2613336;54;20359;-75
2023/12/20 00:43:31;;;;;;;21.30;10.63;;;;;;;;;;2613145;54;20921;-75
2023/12/20 00:49:01;;;;;;;10.83;6.70;;;;;;;;;;2613602;54;20384;-75
2023/12/20 00:54:30;;;;;;;24.93;12.00;;;;;;;;;;2614285;46;20387;-74
2023/12/20 01:00:00;;;;;;;14.03;9.33;;;;;;;;;;2612999;54;20392;-74
2023/12/20 01:05:30;;;;;;;21.23;9.73;;;;;;;;;;2613775;54;20408;-75
2023/12/20 01:11:00;;;;;;;22.20;11.07;;;;;;;;;;2613580;54;20408;-75
2023/12/20 01:16:29;;;;;;;19.60;8.17;;;;;;;;;;2614612;54;20934;-75
2023/12/20 01:19:14;;;;;;;21.17;8.27;;;;;;;;;;2613588;54;20408;-74
2023/12/20 01:21:40;;;;;;;17.63;9.57;;;;;;;;;;2613846;54;20451;-75
2023/12/20 01:27:10;;;;;;;17.03;9.27;;;;;;;;;;2614134;54;20499;-74
2023/12/20 01:32:40;;;;;;;20.07;9.60;;;;;;;;;;2614538;54;20916;-75
2023/12/20 01:38:09;;;;;;;25.90;11.53;;;;;;;;;;2613155;54;20398;-75
2023/12/20 01:43:39;;;;;;;18.53;8.90;;;;;;;;;;2614308;54;20960;-75
2023/12/20 01:49:09;;;;;;;21.37;8.47;;;;;;;;;;2614498;46;20438;-75
2023/12/20 01:54:39;;;;;;;16.53;7.20;;;;;;;;;;2614851;54;20521;-75
2023/12/20 02:00:10;;;;;;;16.63;7.07;;;;;;;;;;2614297;54;20961;-75
2023/12/20 02:05:40;;;;;;;17.27;7.80;;;;;;;;;;2614212;54;20867;-73
2023/12/20 02:11:10;;;;;;;20.20;7.27;;;;;;;;;;2613204;54;20391;-74
2023/12/20 02:16:40;;;;;;;27.57;9.13;;;;;;;;;;2615028;54;20399;-73
2023/12/20 02:22:10;;;;;;;21.50;8.67;;;;;;;;;;2613481;47;20845;-74
2023/12/20 02:27:40;;;;;;;14.13;8.03;;;;;;;;;;2613153;54;20909;-74
2023/12/20 02:33:11;;;;;;;18.00;8.27;;;;;;;;;;2614610;54;20480;-74
2023/12/20 02:38:41;;;;;;;16.97;8.80;;;;;;;;;;2614375;54;20437;-74
2023/12/20 02:44:10;;;;;;;11.20;7.63;;;;;;;;;;2613669;54;20345;-73
2023/12/20 02:49:40;;;;;;;18.53;6.97;;;;;;;;;;2613510;54;20391;-73
2023/12/20 02:55:10;;;;;;;16.60;8.40;;;;;;;;;;2613621;54;20395;-73
2023/12/20 03:00:40;;;;;;;21.57;10.47;;;;;;;;;;2613482;54;20366;-74
2023/12/20 03:06:09;;;;;;;21.57;9.23;;;;;;;;;;2612374;54;20370;-74
2023/12/20 03:08:54;;;;;;;10.57;7.00;;;;;;;;;;2613080;47;20413;-74
2023/12/20 03:11:20;;;;;;;17.07;11.30;;;;;;;;;;2613656;47;20414;-74
2023/12/20 03:16:50;;;;;;;14.20;8.53;;;;;;;;;;2613155;39;20848;-77
2023/12/20 03:22:20;;;;;;;12.13;6.30;;;;;;;;;;2613393;54;20404;-76
2023/12/20 03:27:49;;;;;;;23.27;7.77;;;;;;;;;;2614012;54;20355;-77
2023/12/20 03:33:19;;;;;;;16.00;9.30;;;;;;;;;;2614521;54;20982;-76
2023/12/20 03:38:48;;;;;;;10.50;5.23;;;;;;;;;;2615012;39;20983;-77
2023/12/20 03:44:18;;;;;;;6.70;4.10;;;;;;;;;;2612844;54;20885;-77
2023/12/20 03:49:48;;;;;;;2.43;2.23;;;;;;;;;;2612163;54;20521;-77
2023/12/20 03:55:17;;;;;;;1.53;1.33;;;;;;;;;;2613245;54;20378;-77
2023/12/20 04:00:47;;;;;;;8.43;4.23;;;;;;;;;;2614257;54;20358;-77
2023/12/20 04:06:18;;;;;;;14.13;4.73;;;;;;;;;;2614524;54;20479;-77
2023/12/20 04:11:47;;;;;;;8.23;3.17;;;;;;;;;;2614246;54;20502;-77
2023/12/20 04:17:18;;;;;;;7.03;3.97;;;;;;;;;;2613337;54;20385;-77
2023/12/20 04:22:48;;;;;;;18.57;5.20;;;;;;;;;;2612816;54;20409;-77
2023/12/20 04:28:18;;;;;;;9.53;4.47;;;;;;;;;;2614065;54;20383;-77
2023/12/20 04:33:47;;;;;;;23.50;5.53;;;;;;;;;;2614276;54;20462;-77
2023/12/20 04:45:24;;;;;;;5.77;3.30;;;;;;;;;;2612980;54;20415;-78
2023/12/20 04:50:54;;;;;;;9.47;4.80;;;;;;;;;;2613059;54;20426;-77
2023/12/20 04:56:23;;;;;;;9.63;4.93;;;;;;;;;;2613960;54;20415;-77
2023/12/20 05:01:53;;;;;;;9.10;5.07;;;;;;;;;;2613549;54;20439;-78
2023/12/20 05:07:23;;;;;;;19.73;6.30;;;;;;;;;;2614187;54;20411;-76
2023/12/20 05:12:52;;;;;;;14.73;7.13;;;;;;;;;;2614696;54;20566;-76
2023/12/20 05:18:22;;;;;;;17.80;6.87;;;;;;;;;;2614132;54;20535;-78
2023/12/20 05:23:52;;;;;;;22.13;6.40;;;;;;;;;;2611820;54;20929;-77
2023/12/20 05:29:22;;;;;;;15.80;5.90;;;;;;;;;;2614090;54;20880;-78
2023/12/20 05:34:52;;;;;;;13.50;5.50;;;;;;;;;;2613217;46;20455;-77
2023/12/20 05:44:04;;;;;;;17.53;6.20;;;;;;;;;;2614641;54;20420;-76
2023/12/20 05:49:33;;;;;;;14.57;5.60;;;;;;;;;;2614415;54;20413;-76
2023/12/20 05:55:03;;;;;;;16.87;6.07;;;;;;;;;;2615554;54;20403;-76
2023/12/20 06:00:33;;;;;;;18.17;5.73;;;;;;;;;;2613770;54;22715;-76
2023/12/20 06:06:12;;;;;;;19.17;7.10;;;;;;;;;;2613420;39;20794;-75
2023/12/20 06:11:43;;;;;;;15.80;5.90;;;;;;;;;;2614849;39;20766;-75
2023/12/20 06:17:12;;;;;;;20.67;7.23;;;;;;;;;;2611579;54;20523;-75
2023/12/20 06:22:42;;;;;;;10.37;5.30;;;;;;;;;;2612774;54;21182;-75
2023/12/20 06:28:14;;;;;;;12.40;6.80;;;;;;;;;;2613326;54;20380;-75
2023/12/20 06:33:45;;;;;;;19.13;9.80;;;;;;;;;;2612164;54;20423;-75
2023/12/20 06:39:15;;;;;;;11.10;5.50;;;;;;;;;;2614926;46;20478;-76
2023/12/20 06:41:42;;;;;;;16.50;7.27;;;;;;;;;;2613585;54;20505;-75
2023/12/20 06:44:08;;;;;;;11.30;6.40;;;;;;;;;;2612104;54;20428;-75
2023/12/20 06:49:38;;;;;;;9.00;5.20;;;;;;;;;;2613952;54;20495;-76
2023/12/20 06:55:07;;;;;;;13.53;6.07;;;;;;;;;;2615126;54;20526;-76
2023/12/20 07:00:37;;;;;;;25.77;6.80;;;;;;;;;;2614728;54;20411;-76
2023/12/20 07:06:07;;;;;;;10.57;7.90;;;;;;;;;;2614015;54;20384;-76
2023/12/20 07:11:37;;;;;;;15.13;6.63;;;;;;;;;;2614165;54;20447;-76
2023/12/20 07:17:11;;;;;;;14.60;6.60;;;;;;;;;;2614575;54;20407;-76
2023/12/20 07:22:40;;;;;;;17.23;5.37;;;;;;;;;;2614434;54;20487;-76
2023/12/20 07:28:10;;;;;;;6.53;3.30;;;;;;;;;;2614528;54;20511;-76
2023/12/20 07:33:40;;;;;;;15.20;8.30;;;;;;;;;;2613887;54;20353;-76
2023/12/20 07:36:24;;;;;;;16.90;8.53;;;;;;;;;;2613568;54;20427;-75
2023/12/20 07:38:50;;;;;;;19.97;7.17;;;;;;;;;;2611470;54;20511;-76
2023/12/20 07:41:35;;;;;;;11.27;7.33;;;;;;;;;;2612737;31;20883;-75
2023/12/20 07:44:01;;;;;;;8.90;4.57;;;;;;;;;;2614076;47;20432;-76
2023/12/20 07:49:31;;;;;;;20.80;7.57;;;;;;;;;;2613442;54;20403;-75
2023/12/20 07:55:01;;;;;;;9.27;4.67;;;;;;;;;;2611309;46;20470;-77
2023/12/20 08:00:31;;;;;;;8.53;4.43;;;;;;;;;;2611664;54;20376;-76
2023/12/20 08:06:01;;;;;;;9.53;5.33;;;;;;;;;;2612395;54;20384;-75
2023/12/20 08:11:30;;;;;;;16.30;6.00;;;;;;;;;;2613556;54;20391;-75
2023/12/20 08:17:00;;;;;;;14.50;7.00;;;;;;;;;;2613792;54;20943;-76
2023/12/20 08:22:30;;;;;;;7.67;6.17;;;;;;;;;;2612188;39;20948;-76
2023/12/20 08:28:00;;;;;;;9.50;6.40;;;;;;;;;;2611558;39;20770;-75
2023/12/20 08:33:29;;;;;;;10.13;6.13;;;;;;;;;;2612772;54;20424;-75
2023/12/20 08:39:00;;;;;;;6.00;3.57;;;;;;;;;;2613117;54;20384;-76
2023/12/20 08:41:38;;;;;;;12.67;4.93;;;;;;;;;;2613164;47;20437;-75
2023/12/20 08:44:04;;;;;;;10.70;5.10;;;;;;;;;;2613239;54;20579;-76
2023/12/20 08:49:34;;;;;;;11.93;6.10;;;;;;;;;;2614970;39;20854;-76
2023/12/20 08:55:04;;;;;;;12.83;5.70;;;;;;;;;;2614571;39;20886;-76
2023/12/20 09:00:33;;;;;;;9.87;5.43;;;;;;;;;;2614101;54;20395;-81
2023/12/20 09:06:03;;;;;;;11.07;6.87;;;;;;;;;;2615656;39;20824;-79
2023/12/20 09:11:33;;;;;;;15.87;5.67;;;;;;;;;;2614680;54;20402;-78
2023/12/20 09:17:03;;;;;;;10.53;5.70;;;;;;;;;;2614485;54;20412;-77
2023/12/20 09:22:33;;;;;;;11.47;4.67;;;;;;;;;;2614017;39;21511;-78
2023/12/20 09:28:02;;;;;;;6.73;4.07;;;;;;;;;;2614873;54;20384;-78
2023/12/20 09:33:33;;;;;;;10.17;6.30;;;;;;;;;;2615034;54;20528;-79
2023/12/20 09:39:03;;;;;;;9.87;7.03;;;;;;;;;;2615335;54;20398;-79
2023/12/20 09:41:42;;;;;;;22.20;5.90;;;;;;;;;;2615583;47;20538;-79
2023/12/20 09:44:09;;;;;;;11.17;4.63;;;;;;;;;;2614775;47;20446;-80
2023/12/20 09:49:38;;;;;;;14.13;6.30;;;;;;;;;;2615300;54;20406;-78
2023/12/20 09:55:09;;;;;;;10.07;4.97;;;;;;;;;;2616593;54;20408;-78
2023/12/20 10:00:39;;;;;;;18.33;5.40;;;;;;;;;;2615557;39;20928;-79
2023/12/20 10:06:09;;;;;;;24.07;5.27;;;;;;;;;;2616417;31;20840;-78
2023/12/20 10:11:39;;;;;;;8.73;4.67;;;;;;;;;;2616723;54;20435;-80
2023/12/20 10:17:09;;;;;;;7.97;4.50;;;;;;;;;;2616667;39;20905;-78
2023/12/20 10:22:38;;;;;;;18.07;5.73;;;;;;;;;;2617093;54;20390;-77
2023/12/20 10:28:11;;;;;;;14.57;5.53;;;;;;;;;;2615212;54;20387;-77
2023/12/20 10:33:41;;;;;;;6.70;4.00;;;;;;;;;;2615324;54;20443;-77
2023/12/20 10:39:11;;;;;;;8.00;4.57;;;;;;;;;;2614121;54;20382;-77
2023/12/20 10:50:48;;;;;;;14.30;4.83;;;;;;;;;;2612667;54;21055;-75
2023/12/20 10:53:33;;;;;;;13.80;5.17;;;;;;;;;;2612885;54;20420;-75
2023/12/20 10:56:00;;;;;;;6.83;4.80;;;;;;;;;;2614531;54;20510;-75
2023/12/20 11:01:31;;;;;;;13.37;4.93;;;;;;;;;;2613364;54;20400;-75
2023/12/20 11:07:19;;;;;;;19.63;6.77;;;;;;;;;;2614083;54;20467;-77
2023/12/20 11:12:59;;;;;;;7.17;4.70;;;;;;;;;;2614276;54;20387;-74
2023/12/20 11:18:30;;;;;;;20.63;5.13;;;;;;;;;;2614074;46;20374;-75
2023/12/20 11:24:00;;;;;;;15.97;5.60;;;;;;;;;;2613751;54;20390;-75
2023/12/20 11:29:31;;;;;;;8.03;5.17;;;;;;;;;;2614090;54;20463;-75
2023/12/20 11:35:02;;;;;;;10.70;5.33;;;;;;;;;;2613587;54;20416;-76
2023/12/20 11:40:34;;;;;;;12.60;4.73;;;;;;;;;;2613335;54;20476;-75
2023/12/20 11:46:05;;;;;;;12.73;5.43;;;;;;;;;;2616117;54;20460;-78
2023/12/20 11:51:35;;;;;;;11.87;6.10;;;;;;;;;;2615889;54;20399;-77
2023/12/20 11:57:05;;;;;;;16.10;8.30;;;;;;;;;;2615656;54;20415;-77
2023/12/20 12:02:34;;;;;;;10.80;5.80;;;;;;;;;;2616345;54;20433;-78
2023/12/20 12:08:05;;;;;;;15.87;6.03;;;;;;;;;;2615360;54;20492;-77
2023/12/20 12:13:35;;;;;;;19.30;6.40;;;;;;;;;;2616473;54;20506;-77
2023/12/20 12:19:04;;;;;;;11.87;5.37;;;;;;;;;;2615356;54;20398;-76
2023/12/20 12:24:34;;;;;;;8.73;4.57;;;;;;;;;;2614401;54;20386;-77
2023/12/20 12:30:07;;;;;;;10.50;7.20;;;;;;;;;;2615043;39;20763;-77
2023/12/20 12:35:36;;;;;;;9.70;7.37;;;;;;;;;;2615305;46;20432;-77
2023/12/20 12:41:07;;;;;;;13.50;6.77;;;;;;;;;;2615502;39;20870;-78
2023/12/20 12:43:57;;;;;;;18.10;6.63;;;;;;;;;;2614224;54;20423;-78
2023/12/20 12:46:23;;;;;;;12.13;6.60;;;;;;;;;;2613927;54;20930;-78
2023/12/20 12:51:54;;;;;;;23.67;9.03;;;;;;;;;;2613496;54;20363;-78
2023/12/20 12:57:24;;;;;;;18.20;7.70;;;;;;;;;;2613461;54;20414;-76
2023/12/20 13:02:53;;;;;;;15.53;6.17;;;;;;;;;;2612361;54;21059;-76
2023/12/20 13:08:23;;;;;;;13.07;6.03;;;;;;;;;;2612345;54;20358;-76
2023/12/20 13:13:53;;;;;;;12.10;7.63;;;;;;;;;;2612366;54;20365;-75
2023/12/20 13:19:23;;;;;;;8.93;6.53;;;;;;;;;;2613961;54;20362;-75
2023/12/20 13:24:52;;;;;;;10.90;5.27;;;;;;;;;;2614103;54;20372;-76
2023/12/20 13:30:22;;;;;;;16.97;9.10;;;;;;;;;;2614444;54;20373;-77
2023/12/20 13:35:51;;;;;;;18.23;8.97;;;;;;;;;;2614115;54;20708;-77
2023/12/20 13:41:21;;;;;;;9.23;6.63;;;;;;;;;;2614533;54;20385;-78
2023/12/20 13:43:58;;;;;;;12.00;7.17;;;;;;;;;;2614432;54;20451;-76
2023/12/20 13:46:24;;;;;;;23.83;12.50;;;;;;;;;;2614238;39;20812;-76
2023/12/20 13:51:55;;;;;;;9.17;8.20;;;;;;;;;;2614063;54;20421;-76
2023/12/20 13:57:24;;;;;;;15.07;9.60;;;;;;;;;;2614374;54;20509;-76
2023/12/20 14:02:54;;;;;;;10.60;7.47;;;;;;;;;;2614114;54;20440;-77
2023/12/20 14:08:24;;;;;;;11.40;7.63;;;;;;;;;;2614887;54;20568;-77
2023/12/20 14:13:57;;;;;;;22.50;12.10;;;;;;;;;;2614942;54;20362;-76
2023/12/20 14:19:27;;;;;;;15.20;7.63;;;;;;;;;;2614741;54;20977;-77
2023/12/20 14:24:57;;;;;;;17.10;9.90;;;;;;;;;;2614690;54;20391;-77
2023/12/20 14:30:27;;;;;;;16.23;10.40;;;;;;;;;;2614337;54;20386;-77
2023/12/20 14:35:57;;;;;;;11.60;5.93;;;;;;;;;;2615583;54;20399;-77
2023/12/20 14:41:27;;;;;;;13.00;7.37;;;;;;;;;;2614812;54;20392;-77
2023/12/20 14:43:56;;;;;;;22.20;11.23;;;;;;;;;;2614586;54;20428;-77
2023/12/20 14:46:22;;;;;;;15.60;10.80;;;;;;;;;;2614174;54;20426;-77
2023/12/20 14:51:51;;;;;;;20.87;13.33;;;;;;;;;;2615473;39;20758;-77
2023/12/20 14:57:21;;;;;;;17.33;11.80;;;;;;;;;;2613963;54;20448;-77
2023/12/20 15:02:50;;;;;;;16.83;13.40;;;;;;;;;;2615114;54;20540;-77
2023/12/20 15:08:21;;;;;;;15.63;10.20;;;;;;;;;;2614017;54;20505;-77
2023/12/20 15:13:55;;;;;;;16.47;8.40;;;;;;;;;;2614256;54;20407;-78
2023/12/20 15:19:25;;;;;;;26.57;10.90;;;;;;;;;;2612830;54;20408;-75
2023/12/20 15:24:55;;;;;;;15.17;9.17;;;;;;;;;;2610446;54;20399;-75
2023/12/20 15:30:24;;;;;;;16.07;5.70;;;;;;;;;;2614379;54;20362;-75
2023/12/20 15:35:54;;;;;;;12.97;6.97;;;;;;;;;;2613184;54;20954;-75
2023/12/20 15:41:23;;;;;;;27.47;9.17;;;;;;;;;;2612640;54;20410;-75
2023/12/20 15:43:58;;;;;;;26.90;9.60;;;;;;;;;;2611924;54;20424;-75
2023/12/20 15:46:24;;;;;;;13.80;8.27;;;;;;;;;;2613394;54;20423;-79
2023/12/20 15:51:54;;;;;;;11.57;6.93;;;;;;;;;;2611701;54;20996;-79
2023/12/20 15:57:24;;;;;;;15.77;9.37;;;;;;;;;;2614223;54;20396;-79
2023/12/20 16:02:53;;;;;;;12.77;8.73;;;;;;;;;;2615099;54;20468;-79
2023/12/20 16:08:23;;;;;;;14.80;10.30;;;;;;;;;;2614619;54;20395;-77
2023/12/20 16:11:08;;;;;;;15.53;10.77;;;;;;;;;;2612623;31;20865;-79
2023/12/20 16:13:34;;;;;;;14.90;10.10;;;;;;;;;;2611243;47;20440;-79
2023/12/20 16:19:04;;;;;;;14.77;6.10;;;;;;;;;;2613524;54;20370;-80
2023/12/20 16:24:35;;;;;;;20.83;8.47;;;;;;;;;;2615345;54;20375;-75
2023/12/20 16:30:05;;;;;;;11.17;6.97;;;;;;;;;;2613733;39;20739;-75
2023/12/20 16:35:35;;;;;;;16.83;9.70;;;;;;;;;;2612997;47;20953;-76
2023/12/20 16:41:05;;;;;;;16.17;7.30;;;;;;;;;;2613995;54;20400;-76
2023/12/20 16:43:57;;;;;;;10.13;6.00;;;;;;;;;;2614138;54;20480;-77
2023/12/20 16:46:23;;;;;;;16.37;8.60;;;;;;;;;;2613316;47;20419;-75
2023/12/20 16:51:53;;;;;;;17.03;5.83;;;;;;;;;;2613576;39;20734;-76
2023/12/20 16:57:23;;;;;;;16.10;8.97;;;;;;;;;;2613963;54;20423;-76
2023/12/20 17:02:52;;;;;;;15.80;10.03;;;;;;;;;;2612501;54;20391;-75
2023/12/20 17:08:22;;;;;;;14.50;8.70;;;;;;;;;;2613951;54;20359;-76
2023/12/20 17:13:52;;;;;;;21.13;11.07;;;;;;;;;;2613631;54;20382;-75
2023/12/20 17:19:23;;;;;;;12.47;6.10;;;;;;;;;;2613955;54;20444;-75
2023/12/20 17:24:53;;;;;;;38.00;10.50;;;;;;;;;;2612962;54;20359;-77
2023/12/20 17:30:23;;;;;;;15.70;7.70;;;;;;;;;;2613949;54;20360;-76
2023/12/20 17:35:52;;;;;;;28.00;12.30;;;;;;;;;;2614012;54;20367;-75
2023/12/20 17:41:22;;;;;;;25.57;10.90;;;;;;;;;;2612713;54;20873;-76
2023/12/20 17:47:01;;;;;;;27.40;12.20;;;;;;;;;;2611995;54;20471;-78
2023/12/20 17:52:30;;;;;;;17.27;11.33;;;;;;;;;;2612110;46;20395;-77
2023/12/20 17:58:00;;;;;;;12.13;7.50;;;;;;;;;;2612860;39;20839;-75
2023/12/20 18:03:29;;;;;;;17.50;7.87;;;;;;;;;;2612636;39;20826;-76
2023/12/20 18:08:58;;;;;;;16.27;10.43;;;;;;;;;;2612960;54;20388;-75
2023/12/20 18:14:27;;;;;;;17.53;10.47;;;;;;;;;;2613683;54;20453;-74
2023/12/20 18:19:59;;;;;;;13.20;7.27;;;;;;;;;;2613691;54;20396;-76
2023/12/20 18:25:29;;;;;;;12.37;8.17;;;;;;;;;;2614282;54;21060;-76
2023/12/20 18:30:59;;;;;;;20.70;9.73;;;;;;;;;;2613972;54;20413;-76
2023/12/20 18:36:29;;;;;;;16.60;8.20;;;;;;;;;;2614056;54;20971;-76
2023/12/20 18:41:58;;;;;;;13.27;7.60;;;;;;;;;;2614681;54;20376;-76
2023/12/20 18:47:28;;;;;;;15.63;10.33;;;;;;;;;;2614658;54;20380;-78
2023/12/20 18:52:58;;;;;;;21.67;6.87;;;;;;;;;;2615199;54;20392;-80
2023/12/20 18:58:30;;;;;;;11.87;7.53;;;;;;;;;;2615423;54;20454;-79
2023/12/20 19:04:00;;;;;;;18.03;10.13;;;;;;;;;;2615201;54;20377;-78
2023/12/20 19:09:30;;;;;;;12.30;7.87;;;;;;;;;;2615472;54;21009;-78
2023/12/20 19:14:59;;;;;;;13.50;7.70;;;;;;;;;;2615408;54;20395;-79
2023/12/20 19:20:29;;;;;;;23.40;8.93;;;;;;;;;;2615669;54;20517;-77
2023/12/20 19:26:02;;;;;;;16.83;9.53;;;;;;;;;;2614923;39;20770;-78
2023/12/20 19:31:31;;;;;;;8.30;5.40;;;;;;;;;;2615533;54;20396;-77
2023/12/20 19:37:01;;;;;;;12.57;6.53;;;;;;;;;;2614653;54;20525;-78
2023/12/20 19:42:32;;;;;;;9.47;6.30;;;;;;;;;;2614975;54;20479;-78
2023/12/20 19:51:42;;;;;;;21.57;8.13;;;;;;;;;;2613879;54;20941;-79
2023/12/20 19:57:11;;;;;;;13.60;8.50;;;;;;;;;;2613413;54;20488;-76
2023/12/20 20:02:41;;;;;;;10.93;6.43;;;;;;;;;;2614199;39;20868;-77
2023/12/20 20:08:11;;;;;;;7.47;5.43;;;;;;;;;;2613766;54;20394;-74
2023/12/20 20:13:41;;;;;;;17.70;7.53;;;;;;;;;;2613353;54;20487;-74
2023/12/20 20:19:10;;;;;;;12.00;5.70;;;;;;;;;;2613739;54;20423;-76
2023/12/20 20:24:40;;;;;;;12.37;9.07;;;;;;;;;;2614143;39;20831;-75
2023/12/20 20:30:10;;;;;;;17.20;8.83;;;;;;;;;;2612280;54;20449;-76
2023/12/20 20:35:39;;;;;;;11.80;7.50;;;;;;;;;;2613096;54;21032;-76
2023/12/20 20:41:09;;;;;;;15.23;7.90;;;;;;;;;;2614117;54;20925;-76
2023/12/20 20:46:39;;;;;;;8.73;7.07;;;;;;;;;;2613814;54;20375;-76
2023/12/20 20:52:08;;;;;;;10.93;5.40;;;;;;;;;;2613659;54;20512;-76
2023/12/20 20:57:38;;;;;;;14.43;9.30;;;;;;;;;;2613975;54;20461;-77
2023/12/20 21:03:08;;;;;;;13.87;10.27;;;;;;;;;;2614165;54;20357;-75
2023/12/20 21:08:38;;;;;;;16.70;8.73;;;;;;;;;;2614013;54;20411;-77
2023/12/20 21:14:08;;;;;;;11.73;7.93;;;;;;;;;;2614317;54;20381;-76
2023/12/20 21:19:37;;;;;;;7.67;6.87;;;;;;;;;;2613176;54;20383;-76
2023/12/20 21:25:10;;;;;;;13.83;6.90;;;;;;;;;;2613846;54;20459;-75
2023/12/20 21:30:40;;;;;;;11.87;8.60;;;;;;;;;;2614662;54;20384;-76
2023/12/20 21:36:16;;;;;;;11.40;8.70;;;;;;;;;;2612259;54;20474;-76
2023/12/20 21:41:46;;;;;;;7.03;5.00;;;;;;;;;;2613946;54;20416;-75
2023/12/20 21:47:16;;;;;;;9.00;7.27;;;;;;;;;;2611934;39;20783;-76
2023/12/20 21:56:17;;;;;;;13.17;7.37;;;;;;;;;;2613515;54;20414;-76
2023/12/20 22:01:46;;;;;;;9.07;6.97;;;;;;;;;;2615380;54;20383;-75
2023/12/20 22:07:16;;;;;;;13.10;7.40;;;;;;;;;;2614675;54;20362;-76
2023/12/20 22:12:46;;;;;;;18.47;10.03;;;;;;;;;;2614613;54;20492;-76
2023/12/20 22:18:15;;;;;;;9.43;7.63;;;;;;;;;;2615145;54;20409;-77
2023/12/20 22:23:45;;;;;;;15.20;10.63;;;;;;;;;;2615367;54;20405;-78
2023/12/20 22:29:15;;;;;;;21.50;12.70;;;;;;;;;;2612850;54;20390;-77
2023/12/20 22:34:44;;;;;;;13.50;10.50;;;;;;;;;;2614173;54;20392;-78
2023/12/20 22:40:16;;;;;;;17.93;9.90;;;;;;;;;;2615573;39;20646;-77
2023/12/20 22:45:45;;;;;;;12.43;8.43;;;;;;;;;;2615411;54;20485;-77
2023/12/20 22:51:15;;;;;;;12.83;9.30;;;;;;;;;;2615337;54;20381;-77
2023/12/20 22:56:45;;;;;;;12.93;9.20;;;;;;;;;;2614481;54;20409;-77
2023/12/20 23:02:14;;;;;;;6.73;4.10;;;;;;;;;;2613791;54;20424;-78
2023/12/20 23:07:45;;;;;;;13.00;7.70;;;;;;;;;;2615149;54;20500;-78
2023/12/20 23:13:16;;;;;;;11.57;8.40;;;;;;;;;;2614135;54;20357;-77
2023/12/20 23:18:47;;;;;;;9.70;5.77;;;;;;;;;;2614255;54;20392;-78
2023/12/20 23:24:16;;;;;;;2.27;2.07;;;;;;;;;;2615241;54;20379;-77
2023/12/20 23:29:46;;;;;;;12.37;9.00;;;;;;;;;;2614628;54;20421;-78
2023/12/20 23:35:16;;;;;;;10.50;9.03;;;;;;;;;;2614921;54;20417;-77
2023/12/20 23:38:01;;;;;;;11.83;8.20;;;;;;;;;;2614974;54;20401;-77
2023/12/20 23:40:27;;;;;;;8.60;6.27;;;;;;;;;;2613152;54;20427;-77
2023/12/20 23:45:57;;;;;;;11.50;7.50;;;;;;;;;;2614674;54;20718;-76
2023/12/20 23:51:27;;;;;;;10.13;8.30;;;;;;;;;;2612897;39;20769;-76
2023/12/20 23:56:56;;;;;;;9.97;8.17;;;;;;;;;;2612636;54;20462;-76
